Time;durP1;ratioP1;P1;durP2;ratioP2;P2;SDS_P1;SDS_P2;PMS_P1;PMS_P2;Temp;Humidity;BMP_temperature;BMP_pressure;BME280_temperature;BME280_humidity;BME280_pressure;Samples;Min_cycle;Max_cycle;Signal;HPM_P1;HPM_P2
2023/12/07 00:01:48;;;;;;;25.17;18.57;;;;;;;;;;5039453;28;20488;-84
2023/12/07 00:04:14;;;;;;;28.90;19.37;;;;;;;;;;5039183;28;20484;-85
2023/12/07 00:06:41;;;;;;;33.13;21.70;;;;;;;;;;5035233;28;20453;-85
2023/12/07 00:09:07;;;;;;;28.50;20.17;;;;;;;;;;5039058;28;20454;-85
2023/12/07 00:11:35;;;;;;;30.13;19.50;;;;;;;;;;5039674;28;20492;-85
2023/12/07 00:14:02;;;;;;;30.77;19.60;;;;;;;;;;5031305;28;20520;-85
2023/12/07 00:16:28;;;;;;;34.70;20.80;;;;;;;;;;5036105;28;20557;-85
2023/12/07 00:18:54;;;;;;;34.57;21.07;;;;;;;;;;5029591;28;20474;-85
2023/12/07 00:21:21;;;;;;;26.90;19.53;;;;;;;;;;5026229;28;20517;-85
2023/12/07 00:23:47;;;;;;;29.17;18.53;;;;;;;;;;5028446;28;20550;-85
2023/12/07 00:26:14;;;;;;;27.73;19.73;;;;;;;;;;5034356;28;20477;-84
2023/12/07 00:28:41;;;;;;;26.93;17.13;;;;;;;;;;5038534;28;20634;-86
2023/12/07 00:31:08;;;;;;;30.40;20.23;;;;;;;;;;5031613;28;20455;-86
2023/12/07 00:33:34;;;;;;;26.73;19.77;;;;;;;;;;5022921;28;21084;-86
2023/12/07 00:36:01;;;;;;;34.53;19.27;;;;;;;;;;5026128;28;20450;-85
2023/12/07 00:38:27;;;;;;;29.27;18.47;;;;;;;;;;5035340;28;20786;-85
2023/12/07 00:40:54;;;;;;;26.37;18.67;;;;;;;;;;5037858;28;20481;-85
2023/12/07 00:43:19;;;;;;;30.73;22.20;;;;;;;;;;5031450;28;20494;-85
2023/12/07 00:45:47;;;;;;;29.83;19.90;;;;;;;;;;5035263;28;20454;-85
2023/12/07 00:48:13;;;;;;;30.67;21.00;;;;;;;;;;5033216;28;20249;-84
2023/12/07 00:50:40;;;;;;;30.67;19.87;;;;;;;;;;5037450;28;20449;-84
2023/12/07 00:53:07;;;;;;;36.47;21.10;;;;;;;;;;5037806;28;20489;-83
2023/12/07 00:55:33;;;;;;;32.40;20.40;;;;;;;;;;5036802;28;20467;-83
2023/12/07 00:58:01;;;;;;;33.20;20.80;;;;;;;;;;5032871;28;20493;-83
2023/12/07 01:00:28;;;;;;;31.17;21.97;;;;;;;;;;5030722;28;20485;-83
2023/12/07 01:02:56;;;;;;;31.60;21.00;;;;;;;;;;5032673;28;20485;-83
2023/12/07 01:05:22;;;;;;;33.53;20.50;;;;;;;;;;5025906;28;20458;-84
2023/12/07 01:07:48;;;;;;;40.00;21.13;;;;;;;;;;5037691;28;20473;-84
2023/12/07 01:10:15;;;;;;;35.23;21.30;;;;;;;;;;5035318;28;20478;-84
2023/12/07 01:12:41;;;;;;;29.53;20.43;;;;;;;;;;5030428;28;20450;-84
2023/12/07 01:15:08;;;;;;;31.40;20.93;;;;;;;;;;5032244;28;20500;-85
2023/12/07 01:17:35;;;;;;;29.50;21.10;;;;;;;;;;5031576;28;20485;-84
2023/12/07 01:20:07;;;;;;;32.13;20.70;;;;;;;;;;5034781;28;20543;-84
2023/12/07 01:22:33;;;;;;;33.27;20.13;;;;;;;;;;5032845;28;21019;-84
2023/12/07 01:24:59;;;;;;;30.73;20.63;;;;;;;;;;5029800;28;20487;-84
2023/12/07 01:27:26;;;;;;;34.00;21.17;;;;;;;;;;5034155;28;20819;-83
2023/12/07 01:29:52;;;;;;;33.57;19.47;;;;;;;;;;5026176;28;20485;-84
2023/12/07 01:32:19;;;;;;;36.07;21.33;;;;;;;;;;5033629;28;20471;-84
2023/12/07 01:34:45;;;;;;;35.80;22.93;;;;;;;;;;5037391;28;20573;-84
2023/12/07 01:37:14;;;;;;;34.10;22.60;;;;;;;;;;5036397;28;20454;-84
2023/12/07 01:39:42;;;;;;;39.47;23.40;;;;;;;;;;5038061;28;21006;-84
2023/12/07 01:42:08;;;;;;;34.97;23.53;;;;;;;;;;5033724;28;20458;-83
2023/12/07 01:44:35;;;;;;;41.30;24.37;;;;;;;;;;5033188;28;20863;-84
2023/12/07 01:47:02;;;;;;;40.23;22.87;;;;;;;;;;5028254;28;20470;-84
2023/12/07 01:49:28;;;;;;;35.50;22.70;;;;;;;;;;5032627;28;20460;-84
2023/12/07 01:51:55;;;;;;;34.87;22.93;;;;;;;;;;5032777;28;20467;-82
2023/12/07 01:54:23;;;;;;;35.93;22.80;;;;;;;;;;5032505;28;20528;-84
2023/12/07 01:56:49;;;;;;;43.70;24.20;;;;;;;;;;5022782;28;20546;-84
2023/12/07 01:59:15;;;;;;;35.13;22.27;;;;;;;;;;5031964;28;20895;-84
2023/12/07 02:01:42;;;;;;;39.70;23.27;;;;;;;;;;5029581;28;20457;-84
2023/12/07 02:04:08;;;;;;;34.90;22.47;;;;;;;;;;5035421;28;20509;-84
2023/12/07 02:06:35;;;;;;;38.87;22.37;;;;;;;;;;5036347;28;20442;-84
2023/12/07 02:09:01;;;;;;;40.43;23.80;;;;;;;;;;5037024;28;20494;-85
2023/12/07 02:11:29;;;;;;;32.47;21.87;;;;;;;;;;5032937;28;20449;-86
2023/12/07 02:13:57;;;;;;;37.00;20.80;;;;;;;;;;5034165;28;20593;-86
2023/12/07 02:16:25;;;;;;;36.47;22.80;;;;;;;;;;5036924;28;20454;-85
2023/12/07 02:18:52;;;;;;;33.00;21.33;;;;;;;;;;5037761;28;20533;-85
2023/12/07 02:21:23;;;;;;;42.97;24.03;;;;;;;;;;5037791;28;20473;-83
2023/12/07 02:23:51;;;;;;;33.60;21.70;;;;;;;;;;5036665;28;20466;-84
2023/12/07 02:26:19;;;;;;;37.77;21.47;;;;;;;;;;5036866;28;20576;-85
2023/12/07 02:28:47;;;;;;;35.13;21.70;;;;;;;;;;5029890;28;20455;-85
2023/12/07 02:31:13;;;;;;;37.97;21.73;;;;;;;;;;5033196;28;21009;-85
2023/12/07 02:33:40;;;;;;;37.30;23.20;;;;;;;;;;5039868;28;20513;-84
2023/12/07 02:36:06;;;;;;;40.43;23.03;;;;;;;;;;5038609;28;20456;-84
2023/12/07 02:38:33;;;;;;;39.70;23.30;;;;;;;;;;5038765;28;20549;-85
2023/12/07 02:41:00;;;;;;;36.57;22.13;;;;;;;;;;5040004;28;20536;-85
2023/12/07 02:43:27;;;;;;;34.53;21.30;;;;;;;;;;5040082;28;20485;-85
2023/12/07 02:45:54;;;;;;;34.77;21.50;;;;;;;;;;5037869;28;20532;-86
2023/12/07 02:48:21;;;;;;;37.40;22.73;;;;;;;;;;5041049;28;20474;-86
2023/12/07 02:50:47;;;;;;;36.23;22.20;;;;;;;;;;5035566;28;20890;-86
2023/12/07 02:53:14;;;;;;;37.17;22.40;;;;;;;;;;5037609;28;20776;-86
2023/12/07 02:55:40;;;;;;;35.73;22.70;;;;;;;;;;5039626;28;20518;-86
2023/12/07 02:58:06;;;;;;;32.73;20.97;;;;;;;;;;5040746;28;20500;-85
2023/12/07 03:00:33;;;;;;;36.73;20.73;;;;;;;;;;5038804;28;20776;-85
2023/12/07 03:03:01;;;;;;;42.27;24.27;;;;;;;;;;5034322;28;20449;-85
2023/12/07 03:05:27;;;;;;;37.17;23.23;;;;;;;;;;5036403;28;20486;-86
2023/12/07 03:07:53;;;;;;;36.43;23.33;;;;;;;;;;5039686;28;20572;-86
2023/12/07 03:10:20;;;;;;;37.30;22.20;;;;;;;;;;5035283;28;20872;-86
2023/12/07 03:12:46;;;;;;;39.03;22.30;;;;;;;;;;5039348;28;20532;-86
2023/12/07 03:15:13;;;;;;;37.53;22.37;;;;;;;;;;5032249;28;20489;-86
2023/12/07 03:17:43;;;;;;;33.43;23.43;;;;;;;;;;5030193;28;20505;-86
2023/12/07 03:20:12;;;;;;;36.47;22.07;;;;;;;;;;5037305;28;20497;-86
2023/12/07 03:22:38;;;;;;;33.53;22.27;;;;;;;;;;5035664;28;20542;-86
2023/12/07 03:25:05;;;;;;;37.43;22.00;;;;;;;;;;5029186;28;20998;-85
2023/12/07 03:27:32;;;;;;;34.07;21.60;;;;;;;;;;5033793;28;20466;-85
2023/12/07 03:29:58;;;;;;;36.40;23.17;;;;;;;;;;5039584;28;20485;-85
2023/12/07 03:32:24;;;;;;;36.20;21.83;;;;;;;;;;5033836;28;20517;-85
2023/12/07 03:34:51;;;;;;;37.50;22.80;;;;;;;;;;5032836;28;20486;-85
2023/12/07 03:37:19;;;;;;;39.10;23.50;;;;;;;;;;5034103;28;20513;-83
2023/12/07 03:39:45;;;;;;;38.77;23.17;;;;;;;;;;5038591;28;20561;-82
2023/12/07 03:42:11;;;;;;;33.87;20.53;;;;;;;;;;5040056;28;20537;-84
2023/12/07 03:44:38;;;;;;;37.70;22.83;;;;;;;;;;5033631;28;20822;-84
2023/12/07 03:47:05;;;;;;;35.53;22.93;;;;;;;;;;5030043;28;20453;-86
2023/12/07 03:49:31;;;;;;;34.30;21.93;;;;;;;;;;5030929;28;20454;-85
2023/12/07 03:51:58;;;;;;;39.20;23.13;;;;;;;;;;5037499;28;20450;-86
2023/12/07 03:54:25;;;;;;;36.47;21.70;;;;;;;;;;5034193;28;20544;-86
2023/12/07 03:56:52;;;;;;;34.20;21.83;;;;;;;;;;5034730;28;21058;-86
2023/12/07 03:59:18;;;;;;;36.57;21.30;;;;;;;;;;5036908;28;20485;-84
2023/12/07 04:01:45;;;;;;;36.53;21.60;;;;;;;;;;5034518;28;20445;-84
2023/12/07 04:04:11;;;;;;;30.50;21.57;;;;;;;;;;5039101;28;20553;-84
2023/12/07 04:06:37;;;;;;;32.40;20.50;;;;;;;;;;5037145;28;20593;-84
2023/12/07 04:09:04;;;;;;;32.57;20.57;;;;;;;;;;5033913;28;20510;-84
2023/12/07 04:11:32;;;;;;;29.67;20.60;;;;;;;;;;5035444;28;20469;-84
2023/12/07 04:13:59;;;;;;;33.00;19.90;;;;;;;;;;5036382;28;20512;-83
2023/12/07 04:16:25;;;;;;;38.83;21.40;;;;;;;;;;5037431;28;20946;-84
2023/12/07 04:18:52;;;;;;;36.33;19.27;;;;;;;;;;5038090;28;20561;-84
2023/12/07 04:21:18;;;;;;;35.33;21.83;;;;;;;;;;5034100;28;21056;-84
2023/12/07 04:23:44;;;;;;;32.00;20.17;;;;;;;;;;5037092;28;20485;-84
2023/12/07 04:26:11;;;;;;;33.40;20.00;;;;;;;;;;5036824;28;20533;-84
2023/12/07 04:28:39;;;;;;;29.17;19.57;;;;;;;;;;5036092;28;20541;-84
2023/12/07 04:31:05;;;;;;;30.40;19.50;;;;;;;;;;5034333;28;20521;-84
2023/12/07 04:33:32;;;;;;;31.10;20.57;;;;;;;;;;5028575;28;20477;-84
2023/12/07 04:35:58;;;;;;;33.63;20.67;;;;;;;;;;5024230;28;20517;-84
2023/12/07 04:38:24;;;;;;;31.43;19.40;;;;;;;;;;5037811;28;20489;-85
2023/12/07 04:40:51;;;;;;;31.60;20.27;;;;;;;;;;5033371;28;20485;-85
2023/12/07 04:43:17;;;;;;;30.73;19.30;;;;;;;;;;5027451;28;20515;-84
2023/12/07 04:45:45;;;;;;;41.23;21.50;;;;;;;;;;5031808;28;20545;-84
2023/12/07 04:48:11;;;;;;;37.07;24.10;;;;;;;;;;5034800;28;20446;-84
2023/12/07 04:50:38;;;;;;;40.93;24.37;;;;;;;;;;5029875;28;20445;-83
2023/12/07 04:53:04;;;;;;;40.03;22.37;;;;;;;;;;5035686;28;20517;-84
2023/12/07 04:55:30;;;;;;;37.47;24.53;;;;;;;;;;5032134;28;20544;-84
2023/12/07 04:57:57;;;;;;;43.73;22.50;;;;;;;;;;5034337;28;20525;-85
2023/12/07 05:00:23;;;;;;;43.40;22.33;;;;;;;;;;5035229;28;20529;-85
2023/12/07 05:02:52;;;;;;;36.90;24.17;;;;;;;;;;5038020;28;20462;-85
2023/12/07 05:05:18;;;;;;;36.30;21.87;;;;;;;;;;5038052;28;20557;-85
2023/12/07 05:07:45;;;;;;;32.97;21.90;;;;;;;;;;5035442;28;20454;-85
2023/12/07 05:10:11;;;;;;;38.13;23.43;;;;;;;;;;5038417;28;20548;-84
2023/12/07 05:12:37;;;;;;;39.60;24.30;;;;;;;;;;5037651;28;20526;-84
2023/12/07 05:15:06;;;;;;;38.53;22.70;;;;;;;;;;5029770;28;20494;-84
2023/12/07 05:17:32;;;;;;;43.77;24.27;;;;;;;;;;5035308;28;20515;-85
2023/12/07 05:20:00;;;;;;;34.90;22.60;;;;;;;;;;5036016;28;20547;-84
2023/12/07 05:22:26;;;;;;;40.90;25.30;;;;;;;;;;5034453;28;20513;-85
2023/12/07 05:24:53;;;;;;;40.97;24.87;;;;;;;;;;5032270;28;20496;-84
2023/12/07 05:27:19;;;;;;;37.60;25.07;;;;;;;;;;5033810;28;20462;-84
2023/12/07 05:29:46;;;;;;;39.57;24.27;;;;;;;;;;5036429;28;20461;-85
2023/12/07 05:32:12;;;;;;;35.37;23.07;;;;;;;;;;5028297;28;20462;-86
2023/12/07 05:34:39;;;;;;;40.10;22.87;;;;;;;;;;5029100;28;20605;-85
2023/12/07 05:37:09;;;;;;;35.97;22.40;;;;;;;;;;5028431;28;20897;-84
2023/12/07 05:39:35;;;;;;;37.37;22.47;;;;;;;;;;5035097;28;20550;-85
2023/12/07 05:42:04;;;;;;;36.33;22.67;;;;;;;;;;5036898;28;20510;-85
2023/12/07 05:44:30;;;;;;;36.37;23.63;;;;;;;;;;5034825;28;20491;-84
2023/12/07 05:46:57;;;;;;;32.30;21.53;;;;;;;;;;5031658;28;20517;-84
2023/12/07 05:49:23;;;;;;;37.83;23.07;;;;;;;;;;5037222;28;20811;-84
2023/12/07 05:51:50;;;;;;;37.20;24.83;;;;;;;;;;5032555;28;21194;-84
2023/12/07 05:54:18;;;;;;;39.50;24.43;;;;;;;;;;5034449;28;20478;-84
2023/12/07 05:56:44;;;;;;;36.60;24.43;;;;;;;;;;5037050;28;20959;-83
2023/12/07 05:59:11;;;;;;;43.10;26.00;;;;;;;;;;5037380;28;20918;-84
2023/12/07 06:01:37;;;;;;;35.53;23.47;;;;;;;;;;5035072;28;20488;-85
2023/12/07 06:04:03;;;;;;;39.23;24.10;;;;;;;;;;5033300;28;20954;-86
2023/12/07 06:06:31;;;;;;;39.00;23.97;;;;;;;;;;5037316;28;20454;-84
2023/12/07 06:08:57;;;;;;;42.57;24.23;;;;;;;;;;5035061;28;20470;-85
2023/12/07 06:11:25;;;;;;;41.77;26.40;;;;;;;;;;5037156;28;20477;-84
2023/12/07 06:13:51;;;;;;;44.07;25.80;;;;;;;;;;5030440;28;20454;-84
2023/12/07 06:16:18;;;;;;;44.87;26.37;;;;;;;;;;5030289;28;20934;-86
2023/12/07 06:18:45;;;;;;;41.67;25.53;;;;;;;;;;5034234;28;20957;-87
2023/12/07 06:21:12;;;;;;;40.77;24.93;;;;;;;;;;5031413;28;20513;-87
2023/12/07 06:23:38;;;;;;;46.27;27.07;;;;;;;;;;5032584;28;20482;-87
2023/12/07 06:26:05;;;;;;;45.90;26.17;;;;;;;;;;5037209;28;20450;-87
2023/12/07 06:28:33;;;;;;;49.53;26.70;;;;;;;;;;5034568;28;20448;-85
2023/12/07 06:31:05;;;;;;;42.60;26.30;;;;;;;;;;5032460;28;20489;-87
2023/12/07 06:33:32;;;;;;;44.10;28.00;;;;;;;;;;5028571;28;20454;-87
2023/12/07 06:35:58;;;;;;;48.40;27.50;;;;;;;;;;5035521;28;20557;-86
2023/12/07 06:38:25;;;;;;;46.27;28.03;;;;;;;;;;5033000;28;20561;-86
2023/12/07 06:40:51;;;;;;;53.50;29.63;;;;;;;;;;5030859;28;20497;-86
2023/12/07 06:43:18;;;;;;;44.17;26.83;;;;;;;;;;5033014;28;20462;-86
2023/12/07 06:45:45;;;;;;;47.93;27.33;;;;;;;;;;5029741;28;20455;-86
2023/12/07 06:48:13;;;;;;;47.67;29.30;;;;;;;;;;5028459;28;20694;-86
2023/12/07 06:50:40;;;;;;;49.70;30.20;;;;;;;;;;5029278;28;20795;-86
2023/12/07 06:53:06;;;;;;;57.87;30.00;;;;;;;;;;5032576;28;20491;-86
2023/12/07 06:55:32;;;;;;;50.60;30.30;;;;;;;;;;5032520;28;20577;-86
2023/12/07 06:57:59;;;;;;;51.80;29.03;;;;;;;;;;5032662;28;20497;-86
2023/12/07 07:00:25;;;;;;;56.97;30.07;;;;;;;;;;5037729;28;20488;-86
2023/12/07 07:02:53;;;;;;;58.40;32.23;;;;;;;;;;5035338;28;20521;-86
2023/12/07 07:05:19;;;;;;;54.13;29.83;;;;;;;;;;5038407;28;20560;-86
2023/12/07 07:07:46;;;;;;;53.00;30.07;;;;;;;;;;5040702;28;20496;-86
2023/12/07 07:10:12;;;;;;;54.03;31.17;;;;;;;;;;5040396;28;20465;-86
2023/12/07 07:12:38;;;;;;;55.23;30.20;;;;;;;;;;5025104;28;20958;-86
2023/12/07 07:15:07;;;;;;;58.03;30.93;;;;;;;;;;5035205;28;20573;-86
2023/12/07 07:17:33;;;;;;;59.73;31.47;;;;;;;;;;5036931;28;20489;-87
2023/12/07 07:20:01;;;;;;;61.27;30.63;;;;;;;;;;5035332;28;20619;-87
2023/12/07 07:22:27;;;;;;;56.80;30.27;;;;;;;;;;5033476;28;21244;-88
2023/12/07 07:24:54;;;;;;;58.63;31.27;;;;;;;;;;5037091;28;20492;-87
2023/12/07 07:27:20;;;;;;;59.70;30.07;;;;;;;;;;5040037;28;20481;-86
2023/12/07 07:29:47;;;;;;;59.90;32.80;;;;;;;;;;5038690;28;20527;-87
2023/12/07 07:32:13;;;;;;;63.73;32.50;;;;;;;;;;5038540;28;20454;-85
2023/12/07 07:34:40;;;;;;;60.13;32.03;;;;;;;;;;5041982;28;20517;-85
2023/12/07 07:37:07;;;;;;;67.73;34.37;;;;;;;;;;5036761;28;20457;-86
2023/12/07 07:39:34;;;;;;;67.40;33.80;;;;;;;;;;5039392;28;20454;-88
2023/12/07 07:42:01;;;;;;;72.53;32.47;;;;;;;;;;5044148;28;20454;-88
2023/12/07 07:44:27;;;;;;;76.60;33.70;;;;;;;;;;5042410;28;20433;-85
2023/12/07 07:46:53;;;;;;;74.83;34.33;;;;;;;;;;5037186;28;20464;-87
2023/12/07 07:49:20;;;;;;;76.13;33.83;;;;;;;;;;5043515;28;20523;-87
2023/12/07 07:51:46;;;;;;;67.70;33.60;;;;;;;;;;5038247;28;20445;-88
2023/12/07 07:54:14;;;;;;;69.70;32.67;;;;;;;;;;5041730;28;20864;-85
2023/12/07 07:56:41;;;;;;;70.90;31.70;;;;;;;;;;5043030;28;20477;-87
2023/12/07 07:59:07;;;;;;;74.30;33.00;;;;;;;;;;5043115;28;21001;-87
2023/12/07 08:01:34;;;;;;;72.43;33.37;;;;;;;;;;5043274;28;20477;-86
2023/12/07 08:04:00;;;;;;;68.83;33.10;;;;;;;;;;5040506;28;20495;-86
2023/12/07 08:06:26;;;;;;;81.50;34.97;;;;;;;;;;5042816;28;20493;-86
2023/12/07 08:08:53;;;;;;;70.80;33.97;;;;;;;;;;5044516;28;20499;-87
2023/12/07 08:11:21;;;;;;;72.70;30.93;;;;;;;;;;5039456;28;20462;-86
2023/12/07 08:13:47;;;;;;;74.10;34.40;;;;;;;;;;5045245;28;20457;-86
2023/12/07 08:16:14;;;;;;;70.23;32.10;;;;;;;;;;5040610;28;20491;-87
2023/12/07 08:18:40;;;;;;;72.23;31.50;;;;;;;;;;5041110;28;20561;-88
2023/12/07 08:21:08;;;;;;;73.07;33.10;;;;;;;;;;5041804;28;20568;-88
2023/12/07 08:23:34;;;;;;;75.27;32.03;;;;;;;;;;5031051;28;20458;-89
2023/12/07 08:26:02;;;;;;;78.43;32.27;;;;;;;;;;5040111;28;20518;-89
2023/12/07 08:28:30;;;;;;;78.80;33.23;;;;;;;;;;5044972;28;20485;-89
2023/12/07 08:30:57;;;;;;;67.07;31.00;;;;;;;;;;5040189;28;20463;-89
2023/12/07 08:33:24;;;;;;;65.73;31.53;;;;;;;;;;5033367;28;20480;-87
2023/12/07 08:35:54;;;;;;;65.60;30.00;;;;;;;;;;5037017;28;20489;-87
2023/12/07 08:38:21;;;;;;;65.20;30.33;;;;;;;;;;5037620;28;20458;-88
2023/12/07 08:40:48;;;;;;;79.17;34.93;;;;;;;;;;5044620;28;20720;-89
2023/12/07 08:43:14;;;;;;;54.53;28.13;;;;;;;;;;5036799;28;20484;-88
2023/12/07 08:45:42;;;;;;;67.83;30.60;;;;;;;;;;5036467;28;20475;-88
2023/12/07 08:48:09;;;;;;;62.80;29.97;;;;;;;;;;5031218;28;20724;-90
2023/12/07 08:50:35;;;;;;;66.93;30.10;;;;;;;;;;5036561;28;20450;-88
2023/12/07 08:53:02;;;;;;;56.83;26.63;;;;;;;;;;5040512;28;20486;-85
2023/12/07 08:55:29;;;;;;;62.40;28.07;;;;;;;;;;5033955;28;20613;-84
2023/12/07 08:57:56;;;;;;;70.37;32.27;;;;;;;;;;5036430;28;20446;-86
2023/12/07 09:00:23;;;;;;;73.43;29.00;;;;;;;;;;5038736;28;20458;-87
2023/12/07 09:02:51;;;;;;;68.53;29.27;;;;;;;;;;5035543;28;20452;-85
2023/12/07 09:05:18;;;;;;;80.60;33.33;;;;;;;;;;5031822;28;21030;-85
2023/12/07 09:07:44;;;;;;;68.63;30.57;;;;;;;;;;5035456;28;20445;-86
2023/12/07 09:10:11;;;;;;;71.03;30.63;;;;;;;;;;5038941;28;20523;-84
2023/12/07 09:12:38;;;;;;;72.07;30.43;;;;;;;;;;5041639;28;20488;-84
2023/12/07 09:15:05;;;;;;;75.20;30.10;;;;;;;;;;5039429;28;20453;-85
2023/12/07 09:17:31;;;;;;;82.53;31.27;;;;;;;;;;5037337;28;20483;-86
2023/12/07 09:20:01;;;;;;;77.77;32.17;;;;;;;;;;5034484;28;20493;-89
2023/12/07 09:22:27;;;;;;;72.60;32.03;;;;;;;;;;5027740;28;20460;-89
2023/12/07 09:24:56;;;;;;;78.70;31.37;;;;;;;;;;5033925;28;21049;-88
2023/12/07 09:27:24;;;;;;;94.60;35.80;;;;;;;;;;5034847;28;20549;-86
2023/12/07 09:29:51;;;;;;;79.80;33.53;;;;;;;;;;5040166;28;20457;-82
2023/12/07 09:32:17;;;;;;;89.10;34.87;;;;;;;;;;5040511;28;20446;-85
2023/12/07 09:34:44;;;;;;;86.13;35.40;;;;;;;;;;5040284;28;20517;-88
2023/12/07 09:37:12;;;;;;;82.37;34.87;;;;;;;;;;5039367;28;20550;-87
2023/12/07 09:39:38;;;;;;;77.27;32.90;;;;;;;;;;5039107;28;20454;-86
2023/12/07 09:42:05;;;;;;;82.17;35.17;;;;;;;;;;5034440;28;20454;-86
2023/12/07 09:44:32;;;;;;;78.30;31.83;;;;;;;;;;5037593;28;20514;-86
2023/12/07 09:46:58;;;;;;;80.37;33.90;;;;;;;;;;5033908;28;20549;-86
2023/12/07 09:49:25;;;;;;;66.50;31.03;;;;;;;;;;5034113;28;20928;-86
2023/12/07 09:51:52;;;;;;;87.93;33.53;;;;;;;;;;5038092;28;20470;-89
2023/12/07 09:54:21;;;;;;;75.87;32.27;;;;;;;;;;5038365;28;20952;-87
2023/12/07 09:56:47;;;;;;;76.87;33.47;;;;;;;;;;5039457;28;20565;-87
2023/12/07 09:59:14;;;;;;;71.63;33.80;;;;;;;;;;5034013;28;20508;-87
2023/12/07 10:01:40;;;;;;;81.30;34.60;;;;;;;;;;5034791;28;20506;-88
2023/12/07 10:04:16;;;;;;;76.57;34.50;;;;;;;;;;5035413;28;20449;-87
2023/12/07 10:06:43;;;;;;;75.43;31.63;;;;;;;;;;5035838;28;20533;-87
2023/12/07 10:09:11;;;;;;;70.77;33.53;;;;;;;;;;5034968;28;20454;-88
2023/12/07 10:11:38;;;;;;;72.57;33.63;;;;;;;;;;5035060;28;20565;-86
2023/12/07 10:14:07;;;;;;;65.70;31.73;;;;;;;;;;5030936;28;20489;-87
2023/12/07 10:16:35;;;;;;;70.90;32.80;;;;;;;;;;5026960;28;20529;-87
2023/12/07 10:19:13;;;;;;;75.97;34.90;;;;;;;;;;5028725;28;20462;-88
2023/12/07 10:21:39;;;;;;;69.57;34.70;;;;;;;;;;5005349;28;20447;-86
2023/12/07 10:24:06;;;;;;;62.30;32.37;;;;;;;;;;5012891;28;20497;-88
2023/12/07 10:26:32;;;;;;;78.50;35.83;;;;;;;;;;5019131;28;20443;-89
2023/12/07 10:29:00;;;;;;;68.50;33.60;;;;;;;;;;5012618;28;20500;-87
2023/12/07 10:31:27;;;;;;;65.67;31.90;;;;;;;;;;5011531;28;20823;-89
2023/12/07 10:33:53;;;;;;;61.30;33.20;;;;;;;;;;5017736;28;20451;-89
2023/12/07 10:36:20;;;;;;;67.57;31.10;;;;;;;;;;5004508;28;20561;-88
2023/12/07 10:38:50;;;;;;;57.47;28.83;;;;;;;;;;5018305;28;20489;-87
2023/12/07 10:41:19;;;;;;;61.07;29.37;;;;;;;;;;5018037;28;20861;-88
2023/12/07 10:43:47;;;;;;;55.37;29.20;;;;;;;;;;5021981;28;20466;-86
2023/12/07 10:46:16;;;;;;;52.93;29.70;;;;;;;;;;5021311;28;21022;-88
2023/12/07 10:48:44;;;;;;;39.43;24.80;;;;;;;;;;5011362;28;20460;-89
2023/12/07 10:51:12;;;;;;;50.83;29.53;;;;;;;;;;5009676;28;20479;-92
2023/12/07 10:53:43;;;;;;;51.87;27.03;;;;;;;;;;5013240;28;21116;-84
2023/12/07 10:56:11;;;;;;;40.93;28.83;;;;;;;;;;5016602;28;20490;-87
2023/12/07 10:58:41;;;;;;;41.87;27.00;;;;;;;;;;5020950;28;20454;-87
2023/12/07 11:01:10;;;;;;;36.30;24.30;;;;;;;;;;5017751;28;20557;-87
2023/12/07 11:03:40;;;;;;;35.70;24.30;;;;;;;;;;5008484;28;20451;-85
2023/12/07 11:06:09;;;;;;;33.00;23.63;;;;;;;;;;5016284;28;20454;-85
2023/12/07 11:08:37;;;;;;;30.63;23.20;;;;;;;;;;5009458;28;20467;-86
2023/12/07 11:11:07;;;;;;;28.90;21.53;;;;;;;;;;5009048;28;20451;-85
2023/12/07 11:13:36;;;;;;;30.00;21.40;;;;;;;;;;5014350;28;20469;-90
2023/12/07 11:16:04;;;;;;;30.73;20.77;;;;;;;;;;5013185;28;20546;-90
2023/12/07 11:18:30;;;;;;;28.53;22.70;;;;;;;;;;5020821;28;20439;-90
2023/12/07 11:20:59;;;;;;;29.73;24.17;;;;;;;;;;5032969;28;20560;-88
2023/12/07 11:23:27;;;;;;;27.00;23.30;;;;;;;;;;5035640;28;20497;-88
2023/12/07 11:25:56;;;;;;;24.53;21.23;;;;;;;;;;5032849;28;20474;-89
2023/12/07 11:28:35;;;;;;;28.13;22.17;;;;;;;;;;5037929;28;20500;-90
2023/12/07 11:31:01;;;;;;;31.07;24.57;;;;;;;;;;5032404;28;20454;-90
2023/12/07 11:33:29;;;;;;;24.43;21.27;;;;;;;;;;5030343;28;20519;-90
2023/12/07 11:36:10;;;;;;;29.47;20.00;;;;;;;;;;5038009;28;20499;-91
2023/12/07 11:38:37;;;;;;;26.10;19.87;;;;;;;;;;5033321;28;20758;-91
2023/12/07 11:41:06;;;;;;;25.27;21.30;;;;;;;;;;5043525;28;20488;-91
2023/12/07 11:43:43;;;;;;;26.20;20.33;;;;;;;;;;5041237;28;20445;-90
2023/12/07 11:46:10;;;;;;;25.63;20.80;;;;;;;;;;5039651;28;20457;-87
2023/12/07 11:48:36;;;;;;;24.83;19.93;;;;;;;;;;5036532;28;20435;-91
2023/12/07 11:51:03;;;;;;;29.53;21.27;;;;;;;;;;5038688;28;20492;-90
2023/12/07 11:53:32;;;;;;;25.23;21.40;;;;;;;;;;5038452;28;20450;-91
2023/12/07 11:55:59;;;;;;;29.07;22.53;;;;;;;;;;5041215;28;20493;-90
2023/12/07 11:58:26;;;;;;;26.00;20.47;;;;;;;;;;5039416;28;20489;-90
2023/12/07 12:00:53;;;;;;;26.73;21.60;;;;;;;;;;5030647;28;20497;-90
2023/12/07 12:03:20;;;;;;;27.67;23.13;;;;;;;;;;5031960;28;20489;-84
2023/12/07 12:05:46;;;;;;;26.93;22.80;;;;;;;;;;5035780;28;20461;-85
2023/12/07 12:08:13;;;;;;;27.17;21.93;;;;;;;;;;5036701;28;20477;-84
2023/12/07 12:10:42;;;;;;;28.23;22.70;;;;;;;;;;5024009;28;20902;-85
2023/12/07 12:13:08;;;;;;;24.20;21.27;;;;;;;;;;5023555;28;20839;-87
2023/12/07 12:15:35;;;;;;;29.53;23.07;;;;;;;;;;5035499;28;20497;-85
2023/12/07 12:18:02;;;;;;;26.90;22.17;;;;;;;;;;5036045;28;20474;-86
2023/12/07 12:20:29;;;;;;;25.17;20.50;;;;;;;;;;5025150;28;20508;-84
2023/12/07 12:22:55;;;;;;;24.67;21.60;;;;;;;;;;5024829;28;20582;-86
2023/12/07 12:25:23;;;;;;;23.73;21.13;;;;;;;;;;5029286;28;20484;-85
2023/12/07 12:27:52;;;;;;;23.57;20.17;;;;;;;;;;5035396;28;21087;-83
2023/12/07 12:30:18;;;;;;;21.23;19.03;;;;;;;;;;5031806;28;20458;-87
2023/12/07 12:32:45;;;;;;;20.30;18.30;;;;;;;;;;5026088;28;20455;-87
2023/12/07 12:35:12;;;;;;;24.37;21.63;;;;;;;;;;5034214;28;20454;-88
2023/12/07 12:37:39;;;;;;;23.73;19.40;;;;;;;;;;5031415;28;20508;-87
2023/12/07 12:40:08;;;;;;;22.70;17.80;;;;;;;;;;5028129;28;20455;-86
2023/12/07 12:42:37;;;;;;;22.43;17.90;;;;;;;;;;5033919;28;20450;-86
2023/12/07 12:45:05;;;;;;;23.53;21.00;;;;;;;;;;5030743;28;21124;-88
2023/12/07 12:47:32;;;;;;;23.20;18.00;;;;;;;;;;5033800;28;20434;-86
2023/12/07 12:49:59;;;;;;;29.07;19.33;;;;;;;;;;5036053;28;20461;-88
2023/12/07 12:52:26;;;;;;;23.40;18.93;;;;;;;;;;5036144;28;20449;-88
2023/12/07 12:54:53;;;;;;;24.67;21.90;;;;;;;;;;5035867;28;20446;-87
2023/12/07 12:57:19;;;;;;;27.50;19.77;;;;;;;;;;5034327;28;20493;-87
2023/12/07 12:59:46;;;;;;;22.87;20.20;;;;;;;;;;5033257;28;20516;-88
2023/12/07 13:02:14;;;;;;;24.93;20.73;;;;;;;;;;5033670;28;20431;-89
2023/12/07 13:04:40;;;;;;;28.57;19.60;;;;;;;;;;5032451;28;20901;-90
2023/12/07 13:07:07;;;;;;;25.70;20.33;;;;;;;;;;5034450;28;20947;-87
2023/12/07 13:09:33;;;;;;;26.47;19.60;;;;;;;;;;5035369;28;20481;-87
2023/12/07 13:12:00;;;;;;;24.90;18.13;;;;;;;;;;5031864;28;20455;-86
2023/12/07 13:14:28;;;;;;;25.27;19.57;;;;;;;;;;5036552;28;20533;-87
2023/12/07 13:16:54;;;;;;;28.63;18.80;;;;;;;;;;5026551;28;20522;-89
2023/12/07 13:19:22;;;;;;;24.13;20.77;;;;;;;;;;5025733;28;20462;-89
2023/12/07 13:21:49;;;;;;;25.10;19.20;;;;;;;;;;5022323;28;20462;-88
2023/12/07 13:24:15;;;;;;;25.53;19.90;;;;;;;;;;5022324;28;20447;-89
2023/12/07 13:26:41;;;;;;;19.50;17.57;;;;;;;;;;5029108;28;20465;-89
2023/12/07 13:29:08;;;;;;;21.20;17.30;;;;;;;;;;5034581;28;20485;-82
2023/12/07 13:31:35;;;;;;;24.53;19.07;;;;;;;;;;5035929;28;20485;-87
2023/12/07 13:34:02;;;;;;;21.67;18.20;;;;;;;;;;5030316;28;20545;-86
2023/12/07 13:36:31;;;;;;;21.60;17.13;;;;;;;;;;5032912;28;20484;-85
2023/12/07 13:38:58;;;;;;;20.73;17.70;;;;;;;;;;5036048;28;20489;-83
2023/12/07 13:41:24;;;;;;;25.80;18.77;;;;;;;;;;5035757;28;20442;-83
2023/12/07 13:43:51;;;;;;;23.40;18.27;;;;;;;;;;5033707;28;20516;-83
2023/12/07 13:46:17;;;;;;;20.00;17.77;;;;;;;;;;5032470;28;20553;-84
2023/12/07 13:48:44;;;;;;;23.90;20.10;;;;;;;;;;5033262;28;20493;-85
2023/12/07 13:51:11;;;;;;;21.23;17.83;;;;;;;;;;5035177;28;20465;-83
2023/12/07 13:53:39;;;;;;;20.27;16.70;;;;;;;;;;5025948;28;20446;-83
2023/12/07 13:56:07;;;;;;;20.33;17.20;;;;;;;;;;5022795;28;20486;-83
2023/12/07 13:58:34;;;;;;;20.87;16.97;;;;;;;;;;5032320;28;20802;-83
2023/12/07 14:01:01;;;;;;;20.07;17.00;;;;;;;;;;5038290;28;20645;-83
2023/12/07 14:03:27;;;;;;;18.10;14.63;;;;;;;;;;5039034;28;20569;-82
2023/12/07 14:05:54;;;;;;;19.33;16.40;;;;;;;;;;5039279;28;20464;-82
2023/12/07 14:08:20;;;;;;;20.63;15.90;;;;;;;;;;5032135;28;20455;-86
2023/12/07 14:10:47;;;;;;;18.20;15.20;;;;;;;;;;5043801;28;20523;-86
2023/12/07 14:13:13;;;;;;;21.83;16.10;;;;;;;;;;5041924;28;20477;-87
2023/12/07 14:15:40;;;;;;;20.23;15.23;;;;;;;;;;5042473;28;20507;-84